sensor_id;sensor_type;location;lat;lon;timestamp;P1;durP1;ratioP1;P2;durP2;ratioP2
28822;SDS011;15961;54.678;9.110;2023-01-25T00:00:37;72.72;;;38.97;;
28822;SDS011;15961;54.678;9.110;2023-01-25T00:03:02;80.55;;;40.13;;
28822;SDS011;15961;54.678;9.110;2023-01-25T00:05:28;92.00;;;41.63;;
28822;SDS011;15961;54.678;9.110;2023-01-25T00:07:54;73.43;;;40.13;;
28822;SDS011;15961;54.678;9.110;2023-01-25T00:10:19;74.60;;;38.88;;
28822;SDS011;15961;54.678;9.110;2023-01-25T00:12:45;77.80;;;38.22;;
28822;SDS011;15961;54.678;9.110;2023-01-25T00:15:10;74.55;;;38.85;;
28822;SDS011;15961;54.678;9.110;2023-01-25T00:17:36;71.43;;;37.65;;
28822;SDS011;15961;54.678;9.110;2023-01-25T00:20:02;83.82;;;42.05;;
28822;SDS011;15961;54.678;9.110;2023-01-25T00:22:28;86.05;;;42.05;;
28822;SDS011;15961;54.678;9.110;2023-01-25T00:24:53;81.70;;;41.47;;
28822;SDS011;15961;54.678;9.110;2023-01-25T00:27:19;81.40;;;40.13;;
28822;SDS011;15961;54.678;9.110;2023-01-25T00:29:44;80.30;;;41.28;;
28822;SDS011;15961;54.678;9.110;2023-01-25T00:37:12;85.40;;;44.67;;
28822;SDS011;15961;54.678;9.110;2023-01-25T00:39:44;95.68;;;47.53;;
28822;SDS011;15961;54.678;9.110;2023-01-25T00:42:10;89.63;;;45.80;;
28822;SDS011;15961;54.678;9.110;2023-01-25T00:44:36;99.60;;;48.85;;
28822;SDS011;15961;54.678;9.110;2023-01-25T00:47:03;99.45;;;49.45;;
28822;SDS011;15961;54.678;9.110;2023-01-25T00:49:29;93.43;;;44.72;;
28822;SDS011;15961;54.678;9.110;2023-01-25T00:51:55;77.55;;;41.72;;
28822;SDS011;15961;54.678;9.110;2023-01-25T00:54:22;88.13;;;43.90;;
28822;SDS011;15961;54.678;9.110;2023-01-25T00:56:47;95.40;;;49.65;;
28822;SDS011;15961;54.678;9.110;2023-01-25T00:59:13;91.60;;;45.42;;
28822;SDS011;15961;54.678;9.110;2023-01-25T01:01:40;100.57;;;50.13;;
28822;SDS011;15961;54.678;9.110;2023-01-25T01:04:06;105.70;;;53.55;;
28822;SDS011;15961;54.678;9.110;2023-01-25T01:06:34;106.88;;;54.17;;
28822;SDS011;15961;54.678;9.110;2023-01-25T01:09:00;107.03;;;55.00;;
28822;SDS011;15961;54.678;9.110;2023-01-25T01:11:26;112.90;;;55.00;;
28822;SDS011;15961;54.678;9.110;2023-01-25T01:13:52;107.88;;;54.00;;
28822;SDS011;15961;54.678;9.110;2023-01-25T01:16:20;110.15;;;56.20;;
28822;SDS011;15961;54.678;9.110;2023-01-25T01:18:45;109.53;;;55.35;;
28822;SDS011;15961;54.678;9.110;2023-01-25T01:21:11;98.20;;;48.35;;
28822;SDS011;15961;54.678;9.110;2023-01-25T01:23:37;91.68;;;47.63;;
28822;SDS011;15961;54.678;9.110;2023-01-25T01:26:05;89.45;;;46.00;;
28822;SDS011;15961;54.678;9.110;2023-01-25T01:28:32;80.97;;;44.10;;
28822;SDS011;15961;54.678;9.110;2023-01-25T01:30:59;87.90;;;47.00;;
28822;SDS011;15961;54.678;9.110;2023-01-25T01:33:25;99.35;;;50.42;;
28822;SDS011;15961;54.678;9.110;2023-01-25T01:35:51;86.18;;;45.13;;
28822;SDS011;15961;54.678;9.110;2023-01-25T01:38:17;91.97;;;47.97;;
28822;SDS011;15961;54.678;9.110;2023-01-25T01:40:45;83.63;;;46.45;;
28822;SDS011;15961;54.678;9.110;2023-01-25T01:43:17;102.43;;;52.50;;
28822;SDS011;15961;54.678;9.110;2023-01-25T01:48:16;93.25;;;49.45;;
28822;SDS011;15961;54.678;9.110;2023-01-25T01:50:47;87.13;;;47.47;;
28822;SDS011;15961;54.678;9.110;2023-01-25T01:53:16;96.97;;;49.90;;
28822;SDS011;15961;54.678;9.110;2023-01-25T01:55:42;83.18;;;43.17;;
28822;SDS011;15961;54.678;9.110;2023-01-25T01:58:08;91.38;;;47.85;;
28822;SDS011;15961;54.678;9.110;2023-01-25T02:00:34;88.70;;;46.65;;
28822;SDS011;15961;54.678;9.110;2023-01-25T02:03:03;86.35;;;46.65;;
28822;SDS011;15961;54.678;9.110;2023-01-25T02:08:04;84.07;;;44.72;;
28822;SDS011;15961;54.678;9.110;2023-01-25T02:10:31;82.72;;;43.33;;
28822;SDS011;15961;54.678;9.110;2023-01-25T02:12:58;88.68;;;45.15;;
28822;SDS011;15961;54.678;9.110;2023-01-25T02:15:27;83.93;;;44.75;;
28822;SDS011;15961;54.678;9.110;2023-01-25T02:17:59;78.93;;;42.22;;
28822;SDS011;15961;54.678;9.110;2023-01-25T02:23:05;82.65;;;44.03;;
28822;SDS011;15961;54.678;9.110;2023-01-25T02:25:32;94.88;;;44.30;;
28822;SDS011;15961;54.678;9.110;2023-01-25T02:28:01;88.68;;;45.13;;
28822;SDS011;15961;54.678;9.110;2023-01-25T02:30:49;84.65;;;43.33;;
28822;SDS011;15961;54.678;9.110;2023-01-25T02:33:15;78.88;;;41.78;;
28822;SDS011;15961;54.678;9.110;2023-01-25T02:35:42;79.90;;;43.58;;
28822;SDS011;15961;54.678;9.110;2023-01-25T02:38:11;79.32;;;43.30;;
28822;SDS011;15961;54.678;9.110;2023-01-25T02:40:40;92.05;;;43.55;;
28822;SDS011;15961;54.678;9.110;2023-01-25T02:43:30;89.28;;;44.30;;
28822;SDS011;15961;54.678;9.110;2023-01-25T02:45:59;92.25;;;45.00;;
28822;SDS011;15961;54.678;9.110;2023-01-25T02:48:34;83.63;;;44.75;;
28822;SDS011;15961;54.678;9.110;2023-01-25T02:51:00;90.95;;;46.20;;
28822;SDS011;15961;54.678;9.110;2023-01-25T02:53:26;91.15;;;47.08;;
28822;SDS011;15961;54.678;9.110;2023-01-25T02:55:51;84.82;;;45.92;;
28822;SDS011;15961;54.678;9.110;2023-01-25T02:58:17;85.45;;;45.53;;
28822;SDS011;15961;54.678;9.110;2023-01-25T03:00:42;91.55;;;45.78;;
28822;SDS011;15961;54.678;9.110;2023-01-25T03:03:08;88.05;;;46.03;;
28822;SDS011;15961;54.678;9.110;2023-01-25T03:05:33;80.40;;;42.75;;
28822;SDS011;15961;54.678;9.110;2023-01-25T03:07:59;81.93;;;41.35;;
28822;SDS011;15961;54.678;9.110;2023-01-25T03:10:24;75.68;;;39.75;;
28822;SDS011;15961;54.678;9.110;2023-01-25T03:12:50;67.95;;;35.95;;
28822;SDS011;15961;54.678;9.110;2023-01-25T03:15:15;62.47;;;33.95;;
28822;SDS011;15961;54.678;9.110;2023-01-25T03:17:41;66.93;;;34.85;;
28822;SDS011;15961;54.678;9.110;2023-01-25T03:20:07;63.58;;;33.83;;
28822;SDS011;15961;54.678;9.110;2023-01-25T03:22:33;67.38;;;35.95;;
28822;SDS011;15961;54.678;9.110;2023-01-25T03:24:58;73.22;;;38.70;;
28822;SDS011;15961;54.678;9.110;2023-01-25T03:27:24;81.35;;;40.13;;
28822;SDS011;15961;54.678;9.110;2023-01-25T03:29:49;74.85;;;37.10;;
28822;SDS011;15961;54.678;9.110;2023-01-25T03:32:15;73.22;;;37.35;;
28822;SDS011;15961;54.678;9.110;2023-01-25T03:34:40;69.05;;;35.67;;
28822;SDS011;15961;54.678;9.110;2023-01-25T03:37:06;86.88;;;40.80;;
28822;SDS011;15961;54.678;9.110;2023-01-25T03:39:31;67.85;;;37.05;;
28822;SDS011;15961;54.678;9.110;2023-01-25T03:41:57;72.13;;;38.50;;
28822;SDS011;15961;54.678;9.110;2023-01-25T03:44:22;67.93;;;35.22;;
28822;SDS011;15961;54.678;9.110;2023-01-25T03:46:48;75.13;;;36.00;;
28822;SDS011;15961;54.678;9.110;2023-01-25T03:49:13;72.55;;;34.83;;
28822;SDS011;15961;54.678;9.110;2023-01-25T03:51:39;69.07;;;34.17;;
28822;SDS011;15961;54.678;9.110;2023-01-25T03:54:04;71.88;;;34.38;;
28822;SDS011;15961;54.678;9.110;2023-01-25T03:56:32;69.40;;;34.45;;
28822;SDS011;15961;54.678;9.110;2023-01-25T03:58:57;68.20;;;33.88;;
28822;SDS011;15961;54.678;9.110;2023-01-25T04:01:23;69.90;;;33.22;;
28822;SDS011;15961;54.678;9.110;2023-01-25T04:03:48;67.53;;;33.78;;
28822;SDS011;15961;54.678;9.110;2023-01-25T04:06:14;69.00;;;34.50;;
28822;SDS011;15961;54.678;9.110;2023-01-25T04:08:39;67.47;;;33.28;;
28822;SDS011;15961;54.678;9.110;2023-01-25T04:11:06;71.53;;;35.75;;
28822;SDS011;15961;54.678;9.110;2023-01-25T04:13:33;75.43;;;36.75;;
28822;SDS011;15961;54.678;9.110;2023-01-25T04:16:00;76.45;;;36.08;;
28822;SDS011;15961;54.678;9.110;2023-01-25T04:18:27;78.00;;;37.50;;
28822;SDS011;15961;54.678;9.110;2023-01-25T04:20:53;82.95;;;41.88;;
28822;SDS011;15961;54.678;9.110;2023-01-25T04:23:19;77.68;;;39.85;;
28822;SDS011;15961;54.678;9.110;2023-01-25T04:25:52;92.90;;;45.03;;
28822;SDS011;15961;54.678;9.110;2023-01-25T04:28:21;80.15;;;41.63;;
28822;SDS011;15961;54.678;9.110;2023-01-25T04:30:47;87.88;;;42.30;;
28822;SDS011;15961;54.678;9.110;2023-01-25T04:33:13;85.95;;;44.60;;
28822;SDS011;15961;54.678;9.110;2023-01-25T04:35:39;90.75;;;45.75;;
28822;SDS011;15961;54.678;9.110;2023-01-25T04:38:05;94.43;;;46.30;;
28822;SDS011;15961;54.678;9.110;2023-01-25T04:40:31;94.72;;;45.95;;
28822;SDS011;15961;54.678;9.110;2023-01-25T04:42:56;103.05;;;48.63;;
28822;SDS011;15961;54.678;9.110;2023-01-25T04:45:23;99.22;;;50.08;;
28822;SDS011;15961;54.678;9.110;2023-01-25T04:47:55;100.43;;;50.53;;
28822;SDS011;15961;54.678;9.110;2023-01-25T04:50:22;99.20;;;48.30;;
28822;SDS011;15961;54.678;9.110;2023-01-25T04:52:48;108.47;;;54.80;;
28822;SDS011;15961;54.678;9.110;2023-01-25T04:55:13;110.43;;;53.75;;
28822;SDS011;15961;54.678;9.110;2023-01-25T04:57:39;114.65;;;54.35;;
28822;SDS011;15961;54.678;9.110;2023-01-25T05:00:05;119.50;;;58.60;;
28822;SDS011;15961;54.678;9.110;2023-01-25T05:02:31;116.60;;;56.22;;
28822;SDS011;15961;54.678;9.110;2023-01-25T05:04:57;116.93;;;56.00;;
28822;SDS011;15961;54.678;9.110;2023-01-25T05:07:22;122.32;;;60.70;;
28822;SDS011;15961;54.678;9.110;2023-01-25T05:09:48;120.85;;;57.78;;
28822;SDS011;15961;54.678;9.110;2023-01-25T05:12:13;112.97;;;57.78;;
28822;SDS011;15961;54.678;9.110;2023-01-25T05:14:39;113.35;;;57.53;;
28822;SDS011;15961;54.678;9.110;2023-01-25T05:17:05;114.53;;;58.03;;
28822;SDS011;15961;54.678;9.110;2023-01-25T05:19:31;113.80;;;55.40;;
28822;SDS011;15961;54.678;9.110;2023-01-25T05:21:57;106.13;;;54.03;;
28822;SDS011;15961;54.678;9.110;2023-01-25T05:24:24;107.18;;;55.13;;
28822;SDS011;15961;54.678;9.110;2023-01-25T05:26:53;114.90;;;54.70;;
28822;SDS011;15961;54.678;9.110;2023-01-25T05:32:04;119.63;;;58.28;;
28822;SDS011;15961;54.678;9.110;2023-01-25T05:34:31;115.80;;;57.42;;
28822;SDS011;15961;54.678;9.110;2023-01-25T05:36:57;116.15;;;54.78;;
28822;SDS011;15961;54.678;9.110;2023-01-25T05:39:23;113.78;;;55.75;;
28822;SDS011;15961;54.678;9.110;2023-01-25T05:41:49;110.82;;;54.25;;
28822;SDS011;15961;54.678;9.110;2023-01-25T05:44:14;117.63;;;56.03;;
28822;SDS011;15961;54.678;9.110;2023-01-25T05:46:40;109.85;;;53.60;;
28822;SDS011;15961;54.678;9.110;2023-01-25T05:49:05;109.13;;;52.17;;
28822;SDS011;15961;54.678;9.110;2023-01-25T05:51:31;106.90;;;51.00;;
28822;SDS011;15961;54.678;9.110;2023-01-25T05:53:57;109.40;;;51.65;;
28822;SDS011;15961;54.678;9.110;2023-01-25T05:56:23;108.45;;;50.97;;
28822;SDS011;15961;54.678;9.110;2023-01-25T05:58:52;113.05;;;52.08;;
28822;SDS011;15961;54.678;9.110;2023-01-25T06:01:18;110.93;;;52.90;;
28822;SDS011;15961;54.678;9.110;2023-01-25T06:03:44;111.97;;;53.40;;
28822;SDS011;15961;54.678;9.110;2023-01-25T06:06:10;108.63;;;51.20;;
28822;SDS011;15961;54.678;9.110;2023-01-25T06:08:36;131.20;;;56.35;;
28822;SDS011;15961;54.678;9.110;2023-01-25T06:11:08;118.25;;;54.25;;
28822;SDS011;15961;54.678;9.110;2023-01-25T06:13:35;102.22;;;49.15;;
28822;SDS011;15961;54.678;9.110;2023-01-25T06:16:01;105.75;;;48.53;;
28822;SDS011;15961;54.678;9.110;2023-01-25T06:18:28;106.82;;;49.15;;
28822;SDS011;15961;54.678;9.110;2023-01-25T06:20:58;102.65;;;48.20;;
28822;SDS011;15961;54.678;9.110;2023-01-25T06:23:24;110.50;;;48.80;;
28822;SDS011;15961;54.678;9.110;2023-01-25T06:25:50;102.15;;;48.80;;
28822;SDS011;15961;54.678;9.110;2023-01-25T06:28:17;94.78;;;47.58;;
28822;SDS011;15961;54.678;9.110;2023-01-25T06:30:43;99.75;;;48.25;;
28822;SDS011;15961;54.678;9.110;2023-01-25T06:33:09;97.80;;;48.25;;
28822;SDS011;15961;54.678;9.110;2023-01-25T06:35:34;90.10;;;46.17;;
28822;SDS011;15961;54.678;9.110;2023-01-25T06:38:00;83.05;;;42.25;;
28822;SDS011;15961;54.678;9.110;2023-01-25T06:40:26;79.35;;;42.13;;
28822;SDS011;15961;54.678;9.110;2023-01-25T06:42:52;101.60;;;46.05;;
28822;SDS011;15961;54.678;9.110;2023-01-25T06:45:18;87.22;;;43.25;;
28822;SDS011;15961;54.678;9.110;2023-01-25T06:47:43;88.00;;;43.58;;
28822;SDS011;15961;54.678;9.110;2023-01-25T06:50:11;104.20;;;48.30;;
28822;SDS011;15961;54.678;9.110;2023-01-25T06:52:36;93.82;;;42.15;;
28822;SDS011;15961;54.678;9.110;2023-01-25T06:55:03;84.53;;;40.75;;
28822;SDS011;15961;54.678;9.110;2023-01-25T06:57:30;83.72;;;41.13;;
28822;SDS011;15961;54.678;9.110;2023-01-25T06:59:56;84.70;;;38.53;;
28822;SDS011;15961;54.678;9.110;2023-01-25T07:02:21;78.88;;;37.33;;
28822;SDS011;15961;54.678;9.110;2023-01-25T07:04:47;72.93;;;35.83;;
28822;SDS011;15961;54.678;9.110;2023-01-25T07:07:13;67.50;;;35.17;;
28822;SDS011;15961;54.678;9.110;2023-01-25T07:09:39;76.10;;;36.75;;
28822;SDS011;15961;54.678;9.110;2023-01-25T07:12:05;73.95;;;37.50;;
28822;SDS011;15961;54.678;9.110;2023-01-25T07:14:31;76.15;;;37.78;;
28822;SDS011;15961;54.678;9.110;2023-01-25T07:16:56;84.75;;;38.97;;
28822;SDS011;15961;54.678;9.110;2023-01-25T07:19:22;73.75;;;37.30;;
28822;SDS011;15961;54.678;9.110;2023-01-25T07:21:48;79.32;;;36.42;;
28822;SDS011;15961;54.678;9.110;2023-01-25T07:24:14;77.95;;;36.42;;
28822;SDS011;15961;54.678;9.110;2023-01-25T07:26:41;85.65;;;38.97;;
28822;SDS011;15961;54.678;9.110;2023-01-25T07:29:07;77.13;;;38.08;;
28822;SDS011;15961;54.678;9.110;2023-01-25T07:31:36;74.72;;;37.65;;
28822;SDS011;15961;54.678;9.110;2023-01-25T07:34:02;79.18;;;35.78;;
28822;SDS011;15961;54.678;9.110;2023-01-25T07:36:28;72.00;;;34.15;;
28822;SDS011;15961;54.678;9.110;2023-01-25T07:38:55;72.53;;;36.35;;
28822;SDS011;15961;54.678;9.110;2023-01-25T07:41:22;71.43;;;35.47;;
28822;SDS011;15961;54.678;9.110;2023-01-25T07:43:48;75.88;;;36.97;;
28822;SDS011;15961;54.678;9.110;2023-01-25T07:46:14;76.22;;;36.95;;
28822;SDS011;15961;54.678;9.110;2023-01-25T07:48:44;76.65;;;36.33;;
28822;SDS011;15961;54.678;9.110;2023-01-25T07:51:11;76.25;;;36.33;;
28822;SDS011;15961;54.678;9.110;2023-01-25T07:53:56;81.70;;;37.38;;
28822;SDS011;15961;54.678;9.110;2023-01-25T07:56:25;79.18;;;38.30;;
28822;SDS011;15961;54.678;9.110;2023-01-25T07:58:53;82.93;;;38.05;;
28822;SDS011;15961;54.678;9.110;2023-01-25T08:01:21;84.03;;;37.17;;
28822;SDS011;15961;54.678;9.110;2023-01-25T08:03:48;89.18;;;38.90;;
28822;SDS011;15961;54.678;9.110;2023-01-25T08:06:14;85.03;;;39.40;;
28822;SDS011;15961;54.678;9.110;2023-01-25T08:08:41;80.38;;;39.53;;
28822;SDS011;15961;54.678;9.110;2023-01-25T08:11:10;87.18;;;39.92;;
28822;SDS011;15961;54.678;9.110;2023-01-25T08:13:38;79.90;;;36.78;;
28822;SDS011;15961;54.678;9.110;2023-01-25T08:16:05;83.43;;;39.35;;
28822;SDS011;15961;54.678;9.110;2023-01-25T08:18:30;87.55;;;38.53;;
28822;SDS011;15961;54.678;9.110;2023-01-25T08:20:57;95.75;;;42.85;;
28822;SDS011;15961;54.678;9.110;2023-01-25T08:23:23;80.95;;;37.72;;
28822;SDS011;15961;54.678;9.110;2023-01-25T08:25:49;86.18;;;41.25;;
28822;SDS011;15961;54.678;9.110;2023-01-25T08:28:14;92.25;;;41.22;;
28822;SDS011;15961;54.678;9.110;2023-01-25T08:30:40;86.10;;;39.20;;
28822;SDS011;15961;54.678;9.110;2023-01-25T08:33:06;101.82;;;43.67;;
28822;SDS011;15961;54.678;9.110;2023-01-25T08:35:31;88.80;;;39.70;;
28822;SDS011;15961;54.678;9.110;2023-01-25T08:37:57;80.50;;;39.42;;
28822;SDS011;15961;54.678;9.110;2023-01-25T08:40:22;81.57;;;38.17;;
28822;SDS011;15961;54.678;9.110;2023-01-25T08:42:48;82.90;;;38.05;;
28822;SDS011;15961;54.678;9.110;2023-01-25T08:45:13;85.32;;;37.50;;
28822;SDS011;15961;54.678;9.110;2023-01-25T08:47:39;77.63;;;35.20;;
28822;SDS011;15961;54.678;9.110;2023-01-25T08:50:04;74.60;;;34.30;;
28822;SDS011;15961;54.678;9.110;2023-01-25T08:52:30;82.40;;;35.95;;
28822;SDS011;15961;54.678;9.110;2023-01-25T08:54:56;77.28;;;37.03;;
28822;SDS011;15961;54.678;9.110;2023-01-25T08:57:21;87.15;;;38.75;;
28822;SDS011;15961;54.678;9.110;2023-01-25T08:59:47;91.55;;;37.88;;
28822;SDS011;15961;54.678;9.110;2023-01-25T09:02:12;85.03;;;37.05;;
28822;SDS011;15961;54.678;9.110;2023-01-25T09:04:38;85.65;;;38.00;;
28822;SDS011;15961;54.678;9.110;2023-01-25T09:07:03;85.20;;;39.95;;
28822;SDS011;15961;54.678;9.110;2023-01-25T09:09:30;86.03;;;42.08;;
28822;SDS011;15961;54.678;9.110;2023-01-25T09:11:55;84.72;;;41.65;;
28822;SDS011;15961;54.678;9.110;2023-01-25T09:14:21;83.88;;;39.42;;
28822;SDS011;15961;54.678;9.110;2023-01-25T09:16:47;88.47;;;39.25;;
28822;SDS011;15961;54.678;9.110;2023-01-25T09:19:12;80.18;;;40.03;;
28822;SDS011;15961;54.678;9.110;2023-01-25T09:21:38;93.32;;;41.20;;
28822;SDS011;15961;54.678;9.110;2023-01-25T09:24:04;93.70;;;43.10;;
28822;SDS011;15961;54.678;9.110;2023-01-25T09:26:30;99.85;;;43.65;;
28822;SDS011;15961;54.678;9.110;2023-01-25T09:28:56;97.50;;;43.95;;
28822;SDS011;15961;54.678;9.110;2023-01-25T09:31:22;96.18;;;44.53;;
28822;SDS011;15961;54.678;9.110;2023-01-25T09:33:48;86.05;;;41.15;;
28822;SDS011;15961;54.678;9.110;2023-01-25T09:36:15;97.25;;;42.63;;
28822;SDS011;15961;54.678;9.110;2023-01-25T09:38:41;94.32;;;41.92;;
28822;SDS011;15961;54.678;9.110;2023-01-25T09:49:15;91.93;;;39.90;;
28822;SDS011;15961;54.678;9.110;2023-01-25T09:54:42;94.70;;;41.47;;
28822;SDS011;15961;54.678;9.110;2023-01-25T09:57:13;92.18;;;40.95;;
28822;SDS011;15961;54.678;9.110;2023-01-25T09:59:43;100.07;;;41.15;;
28822;SDS011;15961;54.678;9.110;2023-01-25T10:05:03;90.85;;;38.65;;
28822;SDS011;15961;54.678;9.110;2023-01-25T10:10:34;85.20;;;39.70;;
28822;SDS011;15961;54.678;9.110;2023-01-25T10:13:02;96.85;;;43.50;;
28822;SDS011;15961;54.678;9.110;2023-01-25T10:15:39;99.07;;;42.55;;
28822;SDS011;15961;54.678;9.110;2023-01-25T10:21:00;91.18;;;41.17;;
28822;SDS011;15961;54.678;9.110;2023-01-25T10:26:34;103.18;;;43.53;;
28822;SDS011;15961;54.678;9.110;2023-01-25T10:29:10;103.00;;;42.92;;
28822;SDS011;15961;54.678;9.110;2023-01-25T10:34:49;98.22;;;42.90;;
28822;SDS011;15961;54.678;9.110;2023-01-25T10:37:19;92.35;;;41.30;;
28822;SDS011;15961;54.678;9.110;2023-01-25T10:39:51;98.85;;;42.45;;
28822;SDS011;15961;54.678;9.110;2023-01-25T10:42:37;101.22;;;44.15;;
28822;SDS011;15961;54.678;9.110;2023-01-25T10:45:10;95.35;;;41.95;;
28822;SDS011;15961;54.678;9.110;2023-01-25T10:47:36;91.45;;;42.47;;
28822;SDS011;15961;54.678;9.110;2023-01-25T10:50:10;94.72;;;39.30;;
28822;SDS011;15961;54.678;9.110;2023-01-25T10:53:15;95.30;;;40.63;;
28822;SDS011;15961;54.678;9.110;2023-01-25T10:55:58;98.90;;;41.58;;
28822;SDS011;15961;54.678;9.110;2023-01-25T10:58:43;92.18;;;40.28;;
28822;SDS011;15961;54.678;9.110;2023-01-25T11:01:31;102.10;;;43.80;;
28822;SDS011;15961;54.678;9.110;2023-01-25T11:03:58;100.45;;;41.63;;
28822;SDS011;15961;54.678;9.110;2023-01-25T11:06:29;103.70;;;42.33;;
28822;SDS011;15961;54.678;9.110;2023-01-25T11:09:00;95.57;;;42.28;;
28822;SDS011;15961;54.678;9.110;2023-01-25T11:11:52;89.30;;;38.65;;
28822;SDS011;15961;54.678;9.110;2023-01-25T11:14:18;87.95;;;36.10;;
28822;SDS011;15961;54.678;9.110;2023-01-25T11:16:46;85.82;;;37.20;;
28822;SDS011;15961;54.678;9.110;2023-01-25T11:22:03;85.72;;;38.97;;
28822;SDS011;15961;54.678;9.110;2023-01-25T11:24:43;94.40;;;40.80;;
28822;SDS011;15961;54.678;9.110;2023-01-25T11:27:15;87.10;;;38.15;;
28822;SDS011;15961;54.678;9.110;2023-01-25T11:30:08;83.80;;;38.58;;
28822;SDS011;15961;54.678;9.110;2023-01-25T11:32:38;91.25;;;38.55;;
28822;SDS011;15961;54.678;9.110;2023-01-25T11:35:11;77.88;;;35.38;;
28822;SDS011;15961;54.678;9.110;2023-01-25T11:40:27;74.68;;;34.92;;
28822;SDS011;15961;54.678;9.110;2023-01-25T11:56:49;76.10;;;35.20;;
28822;SDS011;15961;54.678;9.110;2023-01-25T11:59:31;74.57;;;32.90;;
28822;SDS011;15961;54.678;9.110;2023-01-25T12:08:02;80.65;;;33.92;;
28822;SDS011;15961;54.678;9.110;2023-01-25T12:11:23;72.10;;;33.13;;
28822;SDS011;15961;54.678;9.110;2023-01-25T12:13:50;73.60;;;31.73;;
28822;SDS011;15961;54.678;9.110;2023-01-25T12:24:51;85.10;;;32.67;;
28822;SDS011;15961;54.678;9.110;2023-01-25T12:30:20;77.03;;;32.95;;
28822;SDS011;15961;54.678;9.110;2023-01-25T12:33:18;77.65;;;36.20;;
28822;SDS011;15961;54.678;9.110;2023-01-25T12:35:53;84.25;;;33.45;;
28822;SDS011;15961;54.678;9.110;2023-01-25T12:38:29;75.80;;;34.83;;
28822;SDS011;15961;54.678;9.110;2023-01-25T12:41:10;67.68;;;32.45;;
28822;SDS011;15961;54.678;9.110;2023-01-25T12:44:06;82.43;;;34.17;;
28822;SDS011;15961;54.678;9.110;2023-01-25T12:49:21;69.68;;;31.73;;
28822;SDS011;15961;54.678;9.110;2023-01-25T12:51:51;88.20;;;36.83;;
28822;SDS011;15961;54.678;9.110;2023-01-25T12:54:19;71.90;;;33.40;;
28822;SDS011;15961;54.678;9.110;2023-01-25T12:57:12;74.32;;;33.22;;
28822;SDS011;15961;54.678;9.110;2023-01-25T13:05:24;90.50;;;33.95;;
28822;SDS011;15961;54.678;9.110;2023-01-25T13:08:13;86.03;;;35.97;;
28822;SDS011;15961;54.678;9.110;2023-01-25T13:11:07;81.50;;;32.72;;
28822;SDS011;15961;54.678;9.110;2023-01-25T13:13:40;86.28;;;33.67;;
28822;SDS011;15961;54.678;9.110;2023-01-25T13:16:22;82.70;;;33.53;;
28822;SDS011;15961;54.678;9.110;2023-01-25T13:18:54;78.90;;;33.13;;
28822;SDS011;15961;54.678;9.110;2023-01-25T13:24:15;77.03;;;32.20;;
28822;SDS011;15961;54.678;9.110;2023-01-25T13:26:45;73.80;;;32.30;;
28822;SDS011;15961;54.678;9.110;2023-01-25T13:32:12;84.70;;;32.78;;
28822;SDS011;15961;54.678;9.110;2023-01-25T13:34:58;76.03;;;31.58;;
28822;SDS011;15961;54.678;9.110;2023-01-25T13:37:25;77.35;;;30.60;;
28822;SDS011;15961;54.678;9.110;2023-01-25T13:40:03;77.40;;;30.58;;
28822;SDS011;15961;54.678;9.110;2023-01-25T13:42:57;83.90;;;32.88;;
28822;SDS011;15961;54.678;9.110;2023-01-25T13:45:24;84.32;;;32.75;;
28822;SDS011;15961;54.678;9.110;2023-01-25T13:47:58;76.85;;;30.42;;
28822;SDS011;15961;54.678;9.110;2023-01-25T13:50:31;85.05;;;32.35;;
28822;SDS011;15961;54.678;9.110;2023-01-25T13:53:19;87.30;;;35.03;;
28822;SDS011;15961;54.678;9.110;2023-01-25T13:55:51;76.60;;;31.30;;
28822;SDS011;15961;54.678;9.110;2023-01-25T14:00:50;78.45;;;34.13;;
28822;SDS011;15961;54.678;9.110;2023-01-25T14:03:17;92.25;;;35.50;;
28822;SDS011;15961;54.678;9.110;2023-01-25T14:05:50;97.07;;;36.53;;
28822;SDS011;15961;54.678;9.110;2023-01-25T14:08:17;82.60;;;31.65;;
28822;SDS011;15961;54.678;9.110;2023-01-25T14:10:44;84.95;;;32.20;;
28822;SDS011;15961;54.678;9.110;2023-01-25T14:13:14;85.13;;;31.88;;
28822;SDS011;15961;54.678;9.110;2023-01-25T14:15:50;89.03;;;33.70;;
28822;SDS011;15961;54.678;9.110;2023-01-25T14:18:18;95.80;;;35.92;;
28822;SDS011;15961;54.678;9.110;2023-01-25T14:20:45;90.65;;;33.03;;
28822;SDS011;15961;54.678;9.110;2023-01-25T14:23:24;86.80;;;32.78;;
28822;SDS011;15961;54.678;9.110;2023-01-25T14:25:52;101.93;;;35.40;;
28822;SDS011;15961;54.678;9.110;2023-01-25T14:28:19;99.30;;;34.80;;
28822;SDS011;15961;54.678;9.110;2023-01-25T14:30:49;101.65;;;36.85;;
28822;SDS011;15961;54.678;9.110;2023-01-25T14:33:17;90.95;;;35.20;;
28822;SDS011;15961;54.678;9.110;2023-01-25T14:36:02;96.60;;;37.30;;
28822;SDS011;15961;54.678;9.110;2023-01-25T14:38:32;95.85;;;38.28;;
28822;SDS011;15961;54.678;9.110;2023-01-25T14:41:10;102.22;;;39.80;;
28822;SDS011;15961;54.678;9.110;2023-01-25T14:43:49;99.28;;;36.65;;
28822;SDS011;15961;54.678;9.110;2023-01-25T14:46:18;94.60;;;34.92;;
28822;SDS011;15961;54.678;9.110;2023-01-25T14:48:43;97.05;;;37.08;;
28822;SDS011;15961;54.678;9.110;2023-01-25T14:51:26;99.25;;;36.08;;
28822;SDS011;15961;54.678;9.110;2023-01-25T14:53:58;94.72;;;35.28;;
28822;SDS011;15961;54.678;9.110;2023-01-25T14:58:52;110.38;;;38.92;;
28822;SDS011;15961;54.678;9.110;2023-01-25T15:01:26;106.55;;;39.83;;
28822;SDS011;15961;54.678;9.110;2023-01-25T15:03:54;94.43;;;37.22;;
28822;SDS011;15961;54.678;9.110;2023-01-25T15:06:20;108.13;;;37.60;;
28822;SDS011;15961;54.678;9.110;2023-01-25T15:08:46;107.22;;;38.10;;
28822;SDS011;15961;54.678;9.110;2023-01-25T15:11:26;107.30;;;38.30;;
28822;SDS011;15961;54.678;9.110;2023-01-25T15:14:13;116.30;;;43.20;;
28822;SDS011;15961;54.678;9.110;2023-01-25T15:16:44;109.03;;;40.42;;
28822;SDS011;15961;54.678;9.110;2023-01-25T15:19:20;117.28;;;43.13;;
28822;SDS011;15961;54.678;9.110;2023-01-25T15:21:53;108.40;;;39.00;;
28822;SDS011;15961;54.678;9.110;2023-01-25T15:24:21;121.22;;;38.80;;
28822;SDS011;15961;54.678;9.110;2023-01-25T15:26:47;106.47;;;39.35;;
28822;SDS011;15961;54.678;9.110;2023-01-25T15:29:15;109.75;;;38.33;;
28822;SDS011;15961;54.678;9.110;2023-01-25T15:31:45;101.75;;;35.45;;
28822;SDS011;15961;54.678;9.110;2023-01-25T15:34:13;110.85;;;40.28;;
28822;SDS011;15961;54.678;9.110;2023-01-25T15:36:47;128.05;;;49.72;;
28822;SDS011;15961;54.678;9.110;2023-01-25T15:39:14;111.75;;;41.53;;
28822;SDS011;15961;54.678;9.110;2023-01-25T15:41:41;107.22;;;42.33;;
28822;SDS011;15961;54.678;9.110;2023-01-25T15:44:07;111.65;;;40.58;;
28822;SDS011;15961;54.678;9.110;2023-01-25T15:46:34;119.60;;;43.08;;
28822;SDS011;15961;54.678;9.110;2023-01-25T15:49:02;120.20;;;46.78;;
28822;SDS011;15961;54.678;9.110;2023-01-25T15:51:29;129.60;;;47.55;;
28822;SDS011;15961;54.678;9.110;2023-01-25T15:53:56;132.18;;;46.55;;
28822;SDS011;15961;54.678;9.110;2023-01-25T15:56:29;124.97;;;48.05;;
28822;SDS011;15961;54.678;9.110;2023-01-25T15:58:58;133.00;;;47.38;;
28822;SDS011;15961;54.678;9.110;2023-01-25T16:01:26;136.55;;;48.90;;
28822;SDS011;15961;54.678;9.110;2023-01-25T16:03:54;144.00;;;49.85;;
28822;SDS011;15961;54.678;9.110;2023-01-25T16:06:34;145.20;;;49.90;;